Aviation Digital Data Service (ADDS)

Output produced by METARs form (1823 UTC 24 June 2019)
found at http://www.aviationweather.gov/metar/data/
 
Forecast for: KSFB (SANFORD/ORLANDO , FL, US)
Text: KSFB 241729Z 2418/2518 25007KT P6SM FEW040
Forecast period: 1800 UTC 24 June 2019 to 0300 UTC 25 June 2019
Forecast type: FROM: standard forecast or significant change
Winds: from the WSW (250 degrees) at 8 MPH (7 knots; 3.6 m/s)
Visibility: 6 or more miles 10+ km)
Ceiling: at least 12,000 feet AGL
Clouds: few clouds at 4000 feet AGL
Weather: no significant weather forecast for this period
Text: FM250300 26004KT P6SM FEW040 FEW250
Forecast period: 0300 to 1400 UTC 25 June 2019
Forecast type: FROM: standard forecast or significant change
Winds: from the W (260 degrees) at 5 MPH (4 knots; 2.1 m/s)
Visibility: 6 or more miles 10+ km)
Ceiling: at least 12,000 feet AGL
Clouds: few clouds at 4000 feet AGL
few clouds at 25000 feet AGL
Weather: no significant weather forecast for this period
Text: FM251400 29008KT P6SM SCT035 SCT250
Forecast period: 1400 to 1800 UTC 25 June 2019
Forecast type: FROM: standard forecast or significant change
Winds: from the WNW (290 degrees) at 9 MPH (8 knots; 4.1 m/s)
Visibility: 6 or more miles 10+ km)
Ceiling: at least 12,000 feet AGL
Clouds: scattered clouds at 3500 feet AGL
scattered clouds at 25000 feet AGL
Weather: no significant weather forecast for this period